createdAt,value
2023-04-09T00:01:29.914Z,27.23
2023-04-09T00:03:59.088Z,22.00
2023-04-09T00:06:27.185Z,23.17
2023-04-09T00:08:54.970Z,26.00
2023-04-09T00:11:22.765Z,24.47
2023-04-09T00:13:50.715Z,23.13
2023-04-09T00:16:18.518Z,24.10
2023-04-09T00:18:46.451Z,25.47
2023-04-09T00:21:16.162Z,25.60
2023-04-09T00:23:43.927Z,25.73
2023-04-09T00:26:11.628Z,26.90
2023-04-09T00:28:39.373Z,26.70
2023-04-09T00:31:07.085Z,24.47
2023-04-09T00:33:34.785Z,24.90
2023-04-09T00:36:02.933Z,24.03
2023-04-09T00:38:31.993Z,24.70
2023-04-09T00:40:59.734Z,27.73
2023-04-09T00:43:27.936Z,26.30
2023-04-09T00:45:55.941Z,23.77
2023-04-09T00:48:23.866Z,25.87
2023-04-09T00:50:51.632Z,28.43
2023-04-09T00:53:19.900Z,26.83
2023-04-09T00:55:48.946Z,26.17
2023-04-09T00:58:20.532Z,24.80
2023-04-09T01:00:48.380Z,23.33
2023-04-09T01:03:16.325Z,23.67
2023-04-09T01:05:52.239Z,22.10
2023-04-09T01:08:30.900Z,24.90
2023-04-09T01:11:09.004Z,25.20
2023-04-09T01:13:43.382Z,25.17
2023-04-09T01:16:13.356Z,25.70
2023-04-09T01:18:45.579Z,23.63
2023-04-09T01:21:15.350Z,22.13
2023-04-09T01:23:55.686Z,23.37
2023-04-09T01:26:42.409Z,24.17
2023-04-09T01:29:12.214Z,23.70
2023-04-09T01:31:43.465Z,21.40
2023-04-09T01:34:12.487Z,24.03
2023-04-09T01:36:41.408Z,22.07
2023-04-09T01:39:09.645Z,23.70
2023-04-09T01:41:38.947Z,20.33
2023-04-09T01:44:08.694Z,24.30
2023-04-09T01:46:40.370Z,23.70
2023-04-09T01:49:10.352Z,21.80
2023-04-09T01:51:38.616Z,21.47
2023-04-09T01:54:06.628Z,22.00
2023-04-09T01:56:44.044Z,22.73
2023-04-09T01:59:11.858Z,20.70
2023-04-09T02:01:47.850Z,19.90
2023-04-09T02:04:24.816Z,21.80
2023-04-09T02:06:59.566Z,21.40
2023-04-09T02:09:31.971Z,20.73
2023-04-09T02:12:06.737Z,21.67
2023-04-09T02:14:35.075Z,21.97
2023-04-09T02:17:04.431Z,19.30
2023-04-09T02:19:50.775Z,17.90
2023-04-09T02:22:18.914Z,20.75
2023-04-09T02:24:48.569Z,23.33
2023-04-09T02:27:24.576Z,21.57
2023-04-09T02:29:52.403Z,22.87
2023-04-09T02:32:21.469Z,19.33
2023-04-09T02:34:49.388Z,19.30
2023-04-09T02:37:21.093Z,19.27
2023-04-09T02:39:48.799Z,18.57
2023-04-09T02:42:16.542Z,19.63
2023-04-09T02:44:44.553Z,19.60
2023-04-09T02:47:12.251Z,19.60
2023-04-09T02:49:41.274Z,20.90
2023-04-09T02:52:10.936Z,20.57
2023-04-09T02:54:38.627Z,21.60
2023-04-09T02:57:06.361Z,22.90
2023-04-09T02:59:35.714Z,20.43
2023-04-09T03:02:03.563Z,22.17
2023-04-09T03:04:31.359Z,23.50
2023-04-09T03:07:00.423Z,22.90
2023-04-09T03:09:28.938Z,20.70
2023-04-09T03:11:57.324Z,20.30
2023-04-09T03:14:25.128Z,21.20
2023-04-09T03:16:52.848Z,20.40
2023-04-09T03:19:20.534Z,22.13
2023-04-09T03:21:49.231Z,22.43
2023-04-09T03:24:18.586Z,24.63
2023-04-09T03:26:46.352Z,24.13
2023-04-09T03:29:14.043Z,25.13
2023-04-09T03:31:41.839Z,24.60
2023-04-09T03:34:09.706Z,25.50
2023-04-09T03:36:38.494Z,23.20
2023-04-09T03:39:06.244Z,24.87
2023-04-09T03:41:35.364Z,22.17
2023-04-09T03:44:03.141Z,24.60
2023-04-09T03:46:30.941Z,21.27
2023-04-09T03:48:58.718Z,22.40
2023-04-09T03:51:27.161Z,21.70
2023-04-09T03:53:54.953Z,22.97
2023-04-09T03:56:23.073Z,22.43
2023-04-09T03:58:52.370Z,19.50
2023-04-09T04:01:20.337Z,20.53
2023-04-09T04:03:48.304Z,20.90
2023-04-09T04:06:16.100Z,24.03
2023-04-09T04:08:44.676Z,22.27
2023-04-09T04:11:12.394Z,20.00
2023-04-09T04:13:40.186Z,20.80
2023-04-09T04:16:10.977Z,20.70
2023-04-09T04:18:39.004Z,22.03
2023-04-09T04:21:06.978Z,22.10
2023-04-09T04:23:35.727Z,22.27
2023-04-09T04:26:03.477Z,24.00
2023-04-09T04:28:31.210Z,21.70
2023-04-09T04:30:58.918Z,24.10
2023-04-09T04:33:27.965Z,22.80
2023-04-09T04:36:04.583Z,23.80
2023-04-09T04:38:32.287Z,24.77
2023-04-09T04:41:00.012Z,23.17
2023-04-09T04:43:27.767Z,24.10
2023-04-09T04:45:55.793Z,23.87
2023-04-09T04:48:23.664Z,25.27
2023-04-09T04:50:58.037Z,25.00
2023-04-09T04:53:25.856Z,23.20
2023-04-09T04:55:53.937Z,22.50
2023-04-09T04:58:21.726Z,23.80
2023-04-09T05:00:49.526Z,23.80
2023-04-09T05:03:17.357Z,24.10
2023-04-09T05:05:45.985Z,23.20
2023-04-09T05:08:15.196Z,26.43
2023-04-09T05:10:43.848Z,22.90
2023-04-09T05:13:11.683Z,27.83
2023-04-09T05:15:40.473Z,24.07
2023-04-09T05:18:08.610Z,24.13
2023-04-09T05:20:36.619Z,25.10
2023-04-09T05:23:04.415Z,25.87
2023-04-09T05:25:33.466Z,25.00
2023-04-09T05:28:01.218Z,27.10
2023-04-09T05:30:28.948Z,23.17
2023-04-09T05:32:56.692Z,26.50
2023-04-09T05:35:24.442Z,23.87
2023-04-09T05:37:52.151Z,26.67
2023-04-09T05:40:19.901Z,26.50
2023-04-09T05:42:48.968Z,25.90
2023-04-09T05:45:16.727Z,25.80
2023-04-09T05:47:44.533Z,26.33
2023-04-09T05:50:12.508Z,26.00
2023-04-09T05:52:40.256Z,23.60
2023-04-09T05:55:09.785Z,26.57
2023-04-09T05:57:37.499Z,24.10
2023-04-09T06:00:08.120Z,25.80
2023-04-09T06:02:36.025Z,25.40
2023-04-09T06:05:03.858Z,25.53
2023-04-09T06:07:31.886Z,27.43
2023-04-09T06:09:59.568Z,26.17
2023-04-09T06:12:27.260Z,26.47
2023-04-09T06:14:55.014Z,25.90
2023-04-09T06:17:24.188Z,24.50
2023-04-09T06:19:51.932Z,24.70
2023-04-09T06:22:19.627Z,26.77
2023-04-09T06:24:47.353Z,25.00
2023-04-09T06:27:15.581Z,25.10
2023-04-09T06:29:43.268Z,25.80
2023-04-09T06:32:11.065Z,26.60
2023-04-09T06:34:40.178Z,26.17
2023-04-09T06:37:07.922Z,24.63
2023-04-09T06:39:35.922Z,25.57
2023-04-09T06:42:04.728Z,26.73
2023-04-09T06:44:32.465Z,25.00
2023-04-09T06:47:00.292Z,26.40
2023-04-09T06:49:28.055Z,24.60
2023-04-09T06:51:57.064Z,26.23
2023-04-09T06:54:25.023Z,26.50
2023-04-09T06:56:52.774Z,27.10
2023-04-09T06:59:20.498Z,24.80
2023-04-09T07:01:48.314Z,25.47
2023-04-09T07:04:16.329Z,25.03
2023-04-09T07:06:44.332Z,24.10
2023-04-09T07:09:13.487Z,23.33
2023-04-09T07:11:41.211Z,23.03
2023-04-09T07:14:08.943Z,23.93
2023-04-09T07:16:36.716Z,25.10
2023-04-09T07:19:06.426Z,23.00
2023-04-09T07:21:34.209Z,24.50
2023-04-09T07:24:01.959Z,23.90
2023-04-09T07:26:31.053Z,24.80
2023-04-09T07:28:59.358Z,24.60
2023-04-09T07:31:27.086Z,22.40
2023-04-09T07:33:55.137Z,23.43
2023-04-09T07:36:23.101Z,23.93
2023-04-09T07:38:51.239Z,24.03
2023-04-09T07:41:19.110Z,22.87
2023-04-09T07:43:48.166Z,23.70
2023-04-09T07:46:20.216Z,23.10
2023-04-09T07:48:49.434Z,23.77
2023-04-09T07:51:17.483Z,21.90
2023-04-09T07:53:48.222Z,23.30
2023-04-09T07:56:16.687Z,22.80
2023-04-09T07:58:44.761Z,23.30
2023-04-09T08:01:13.820Z,22.50
2023-04-09T08:03:41.753Z,24.07
2023-04-09T08:06:09.585Z,25.83
2023-04-09T08:08:37.484Z,24.33
2023-04-09T08:11:06.742Z,24.33
2023-04-09T08:13:34.452Z,22.60
2023-04-09T08:16:03.651Z,24.90
2023-04-09T08:18:32.786Z,25.07
2023-04-09T08:21:04.997Z,25.43
2023-04-09T08:23:32.761Z,25.23
2023-04-09T08:26:00.458Z,25.37
2023-04-09T08:28:28.199Z,27.03
2023-04-09T08:30:55.882Z,26.87
2023-04-09T08:33:23.605Z,24.90
2023-04-09T08:35:53.286Z,24.50
2023-04-09T08:38:21.776Z,27.47
2023-04-09T08:40:49.557Z,25.00
2023-04-09T08:43:18.127Z,25.43
2023-04-09T08:45:46.650Z,24.70
2023-04-09T08:48:15.995Z,25.47
2023-04-09T08:50:46.095Z,23.63
2023-04-09T08:53:16.596Z,25.03
2023-04-09T08:55:46.677Z,25.93
2023-04-09T08:58:14.437Z,27.27
2023-04-09T09:00:42.339Z,26.73
2023-04-09T09:03:13.005Z,26.20
2023-04-09T09:05:42.168Z,24.03
2023-04-09T09:08:10.695Z,27.00
2023-04-09T09:10:41.580Z,25.83
2023-04-09T09:13:18.586Z,27.03
2023-04-09T09:15:47.720Z,26.13
2023-04-09T09:18:15.527Z,24.60
2023-04-09T09:20:43.275Z,26.40
2023-04-09T09:23:11.088Z,23.83
2023-04-09T09:25:43.383Z,22.60
2023-04-09T09:28:12.286Z,22.90
2023-04-09T09:30:41.590Z,21.33
2023-04-09T09:33:10.642Z,22.80
2023-04-09T09:35:49.973Z,22.87
2023-04-09T09:38:18.245Z,23.27
2023-04-09T09:40:48.353Z,24.50
2023-04-09T09:43:16.158Z,24.70
2023-04-09T09:45:45.067Z,22.10
2023-04-09T09:48:14.061Z,25.07
2023-04-09T09:50:43.086Z,23.43
2023-04-09T09:53:12.189Z,24.80
2023-04-09T09:55:41.695Z,22.47
2023-04-09T09:58:17.917Z,25.20
2023-04-09T10:00:48.849Z,23.20
2023-04-09T10:03:22.329Z,21.93
2023-04-09T10:05:50.858Z,24.67
2023-04-09T10:08:18.986Z,22.50
2023-04-09T10:10:48.411Z,25.57
2023-04-09T10:13:25.553Z,24.83
2023-04-09T10:15:53.904Z,23.40
2023-04-09T10:18:22.395Z,24.53
2023-04-09T10:20:56.079Z,21.33
2023-04-09T10:23:33.902Z,22.83
2023-04-09T10:26:03.026Z,22.60
2023-04-09T10:28:32.809Z,21.57
2023-04-09T10:31:01.250Z,19.27
2023-04-09T10:33:29.481Z,22.00
2023-04-09T10:36:01.900Z,22.90
2023-04-09T10:38:37.381Z,22.03
2023-04-09T10:41:13.822Z,23.87
2023-04-09T10:43:43.112Z,20.93
2023-04-09T10:46:26.755Z,19.83
2023-04-09T10:49:13.513Z,19.57
2023-04-09T10:51:41.872Z,19.47
2023-04-09T10:54:43.557Z,20.47
2023-04-09T10:57:13.593Z,20.13
2023-04-09T10:59:44.796Z,20.50
2023-04-09T11:02:38.431Z,21.33
2023-04-09T11:05:19.555Z,19.60
2023-04-09T11:07:52.766Z,20.23
2023-04-09T11:10:20.878Z,19.83
2023-04-09T11:12:49.048Z,18.90
2023-04-09T11:15:19.325Z,19.10
2023-04-09T11:17:47.649Z,16.37
2023-04-09T11:20:17.348Z,16.33
2023-04-09T11:22:45.248Z,16.63
2023-04-09T11:25:19.841Z,14.73
2023-04-09T11:27:47.817Z,16.40
2023-04-09T11:30:16.250Z,17.00
2023-04-09T11:32:45.907Z,16.23
2023-04-09T11:35:15.595Z,17.23
2023-04-09T11:37:44.713Z,15.13
2023-04-09T11:40:19.969Z,15.80
2023-04-09T11:42:50.969Z,15.13
2023-04-09T11:45:19.757Z,17.30
2023-04-09T11:47:49.215Z,16.30
2023-04-09T11:50:17.573Z,14.83
2023-04-09T11:52:46.907Z,15.60
2023-04-09T11:55:25.175Z,15.10
2023-04-09T11:57:55.020Z,14.33
2023-04-09T12:00:24.700Z,16.00
2023-04-09T12:03:02.407Z,13.93
2023-04-09T12:05:31.760Z,13.03
2023-04-09T12:08:01.384Z,15.20
2023-04-09T12:10:30.372Z,14.53
2023-04-09T12:13:03.500Z,15.67
2023-04-09T12:15:33.974Z,14.40
2023-04-09T12:18:03.859Z,13.33
2023-04-09T12:20:34.909Z,13.60
2023-04-09T12:23:04.916Z,13.27
2023-04-09T12:25:33.205Z,14.27
2023-04-09T12:28:01.447Z,13.80
2023-04-09T12:30:29.176Z,15.10
2023-04-09T12:32:57.143Z,13.43
2023-04-09T12:35:26.867Z,14.87
2023-04-09T12:37:54.782Z,13.63
2023-04-09T12:40:22.984Z,12.40
2023-04-09T12:42:50.757Z,13.50
2023-04-09T12:45:20.175Z,12.80
2023-04-09T12:47:48.066Z,12.57
2023-04-09T12:50:16.633Z,12.70
2023-04-09T12:52:45.932Z,12.93
2023-04-09T12:55:14.605Z,12.43
2023-04-09T12:57:44.768Z,12.40
2023-04-09T13:00:13.918Z,13.17
2023-04-09T13:02:41.784Z,11.90
2023-04-09T13:05:10.044Z,12.97
2023-04-09T13:07:37.835Z,12.27
2023-04-09T13:10:07.755Z,12.90
2023-04-09T13:12:35.453Z,12.30
2023-04-09T13:15:03.824Z,12.03
2023-04-09T13:17:31.567Z,11.50
2023-04-09T13:19:59.316Z,12.60
2023-04-09T13:22:27.242Z,13.93
2023-04-09T13:24:54.993Z,12.57
2023-04-09T13:27:24.006Z,14.50
2023-04-09T13:29:51.946Z,13.70
2023-04-09T13:32:21.779Z,14.40
2023-04-09T13:34:49.553Z,14.47
2023-04-09T13:37:18.319Z,15.43
2023-04-09T13:39:46.694Z,13.97
2023-04-09T13:42:16.180Z,12.97
2023-04-09T13:44:45.617Z,14.47
2023-04-09T13:47:13.818Z,14.27
2023-04-09T13:49:42.018Z,16.00
2023-04-09T13:52:10.583Z,15.00
2023-04-09T13:54:38.462Z,16.20
2023-04-09T13:57:06.347Z,14.83
2023-04-09T13:59:34.037Z,14.43
2023-04-09T14:02:03.159Z,15.67
2023-04-09T14:04:31.055Z,14.57
2023-04-09T14:06:58.854Z,15.20
2023-04-09T14:09:26.632Z,15.63
2023-04-09T14:11:56.028Z,17.37
2023-04-09T14:14:23.875Z,16.83
2023-04-09T14:16:51.577Z,15.77
2023-04-09T14:19:20.771Z,16.17
2023-04-09T14:21:48.498Z,15.90
2023-04-09T14:24:16.312Z,16.60
2023-04-09T14:26:44.044Z,16.43
2023-04-09T14:29:11.745Z,16.50
2023-04-09T14:31:41.805Z,16.17
2023-04-09T14:34:09.899Z,17.00
2023-04-09T14:36:38.972Z,18.57
2023-04-09T14:39:06.681Z,16.70
2023-04-09T14:41:36.491Z,15.77
2023-04-09T14:44:04.286Z,18.90
2023-04-09T14:46:32.949Z,19.00
2023-04-09T14:49:00.913Z,16.33
2023-04-09T14:51:30.384Z,18.87
2023-04-09T14:53:59.538Z,17.30
2023-04-09T14:56:27.364Z,17.03
2023-04-09T14:58:55.200Z,17.73
2023-04-09T15:01:22.970Z,17.37
2023-04-09T15:03:51.220Z,17.67
2023-04-09T15:06:19.257Z,18.87
2023-04-09T15:08:46.970Z,16.80
2023-04-09T15:11:17.672Z,19.57
2023-04-09T15:13:45.625Z,18.37
2023-04-09T15:16:22.258Z,19.83
2023-04-09T15:18:51.991Z,19.30
2023-04-09T15:21:20.735Z,20.37
2023-04-09T15:23:48.454Z,18.80
2023-04-09T15:26:17.545Z,19.87
2023-04-09T15:28:46.085Z,19.77
2023-04-09T15:31:14.118Z,19.47
2023-04-09T15:33:43.466Z,18.43
2023-04-09T15:36:12.551Z,20.53
2023-04-09T15:38:40.418Z,18.80
2023-04-09T15:41:08.153Z,18.93
2023-04-09T15:43:37.302Z,18.13
2023-04-09T15:46:09.950Z,20.47
2023-04-09T15:48:37.863Z,20.20
2023-04-09T15:51:06.162Z,21.00
2023-04-09T15:53:33.932Z,20.37
2023-04-09T15:56:01.704Z,19.03
2023-04-09T15:58:29.753Z,21.37
2023-04-09T16:00:58.876Z,23.50
2023-04-09T16:03:26.873Z,22.30
2023-04-09T16:05:54.625Z,21.50
2023-04-09T16:08:22.307Z,22.77
2023-04-09T16:10:50.066Z,25.43
2023-04-09T16:13:17.760Z,24.10
2023-04-09T16:15:46.693Z,20.83
2023-04-09T16:18:16.030Z,21.33
2023-04-09T16:20:43.749Z,23.00
2023-04-09T16:23:11.531Z,23.77
2023-04-09T16:25:39.307Z,22.70
2023-04-09T16:28:07.040Z,21.00
2023-04-09T16:30:34.838Z,24.40
2023-04-09T16:33:02.789Z,24.80
2023-04-09T16:35:32.056Z,23.70
2023-04-09T16:37:59.917Z,24.30
2023-04-09T16:40:27.790Z,24.97
2023-04-09T16:42:55.617Z,23.37
2023-04-09T16:45:23.661Z,23.80
2023-04-09T16:47:53.994Z,20.20
2023-04-09T16:50:21.940Z,21.80
2023-04-09T16:52:51.411Z,19.13
2023-04-09T16:55:21.382Z,21.00
2023-04-09T16:57:49.304Z,17.67
2023-04-09T17:00:18.240Z,19.57
2023-04-09T17:02:46.932Z,18.80
2023-04-09T17:05:15.885Z,19.40
2023-04-09T17:07:43.590Z,19.27
2023-04-09T17:10:12.905Z,17.90
2023-04-09T17:12:40.770Z,19.17
2023-04-09T17:15:09.849Z,19.13
2023-04-09T17:17:38.276Z,20.70
2023-04-09T17:20:07.404Z,17.20
2023-04-09T17:22:35.736Z,19.73
2023-04-09T17:25:04.764Z,20.93
2023-04-09T17:27:34.024Z,19.27
2023-04-09T17:30:01.977Z,20.67
2023-04-09T17:32:29.736Z,20.63
2023-04-09T17:34:59.443Z,19.20
2023-04-09T17:37:28.806Z,17.93
2023-04-09T17:39:56.593Z,20.03
2023-04-09T17:42:24.555Z,18.60
2023-04-09T17:44:53.701Z,20.20
2023-04-09T17:47:21.502Z,19.57
2023-04-09T17:49:49.261Z,22.07
2023-04-09T17:52:17.035Z,20.20
2023-04-09T17:54:45.736Z,20.63
2023-04-09T17:57:13.594Z,20.90
2023-04-09T17:59:41.374Z,19.60
2023-04-09T18:02:10.769Z,19.83
2023-04-09T18:04:39.100Z,19.90
2023-04-09T18:07:07.832Z,19.67
2023-04-09T18:09:35.615Z,19.67
2023-04-09T18:12:03.346Z,19.27
2023-04-09T18:14:32.362Z,20.37
2023-04-09T18:17:00.980Z,20.27
2023-04-09T18:19:30.186Z,19.20
2023-04-09T18:21:57.921Z,19.80
2023-04-09T18:24:26.293Z,20.37
2023-04-09T18:26:54.022Z,20.30
2023-04-09T18:29:21.816Z,20.23
2023-04-09T18:31:49.610Z,19.73
2023-04-09T18:34:17.348Z,21.50
2023-04-09T18:36:47.254Z,20.63
2023-04-09T18:39:15.209Z,19.80
2023-04-09T18:41:44.083Z,20.03
2023-04-09T18:44:11.938Z,19.80
2023-04-09T18:46:39.855Z,20.63
2023-04-09T18:49:07.567Z,19.17
2023-04-09T18:51:35.357Z,19.50
2023-04-09T18:54:04.448Z,20.03
2023-04-09T18:56:32.275Z,20.00
2023-04-09T18:58:59.970Z,20.63
2023-04-09T19:01:27.690Z,19.97
2023-04-09T19:03:55.670Z,18.90
2023-04-09T19:06:25.455Z,19.40
2023-04-09T19:08:57.855Z,19.10
2023-04-09T19:11:26.953Z,19.17
2023-04-09T19:13:54.680Z,21.40
2023-04-09T19:16:22.542Z,20.90
2023-04-09T19:18:50.274Z,19.13
2023-04-09T19:21:18.516Z,18.37
2023-04-09T19:23:46.746Z,19.17
2023-04-09T19:26:14.722Z,19.10
2023-04-09T19:28:43.775Z,19.03
2023-04-09T19:31:14.159Z,20.20
2023-04-09T19:33:41.903Z,17.93
2023-04-09T19:36:09.601Z,17.37
2023-04-09T19:38:37.313Z,19.00
2023-04-09T19:41:05.344Z,17.67
2023-04-09T19:43:33.186Z,18.70
2023-04-09T19:46:05.825Z,17.27
2023-04-09T19:48:33.565Z,18.60
2023-04-09T19:51:01.970Z,19.08
2023-04-09T19:53:30.903Z,19.30
2023-04-09T19:55:58.615Z,19.80
2023-04-09T19:58:26.397Z,19.00
2023-04-09T20:00:54.781Z,20.30
2023-04-09T20:03:24.023Z,19.73
2023-04-09T20:05:51.847Z,21.53
2023-04-09T20:08:19.564Z,20.83
2023-04-09T20:10:47.684Z,20.13
2023-04-09T20:13:15.457Z,18.77
2023-04-09T20:15:43.597Z,20.77
2023-04-09T20:18:11.571Z,23.43
2023-04-09T20:20:40.804Z,20.80
2023-04-09T20:23:08.517Z,20.00
2023-04-09T20:25:36.646Z,20.30
2023-04-09T20:28:04.766Z,19.63
2023-04-09T20:30:32.910Z,21.10
2023-04-09T20:33:01.260Z,21.47
2023-04-09T20:35:29.072Z,20.77
2023-04-09T20:37:58.148Z,20.47
2023-04-09T20:40:26.229Z,22.57
2023-04-09T20:42:53.905Z,21.87
2023-04-09T20:45:21.602Z,21.83
2023-04-09T20:47:49.363Z,23.33
2023-04-09T20:50:17.320Z,19.53
2023-04-09T20:52:45.064Z,20.30
2023-04-09T20:55:14.146Z,21.88
2023-04-09T20:57:42.319Z,21.60
2023-04-09T21:00:11.141Z,21.60
2023-04-09T21:02:40.486Z,20.60
2023-04-09T21:05:19.693Z,19.73
2023-04-09T21:07:51.137Z,20.33
2023-04-09T21:10:20.285Z,19.53
2023-04-09T21:12:48.155Z,19.80
2023-04-09T21:15:16.063Z,18.93
2023-04-09T21:17:43.849Z,19.93
2023-04-09T21:20:12.584Z,20.63
2023-04-09T21:22:40.388Z,19.53
2023-04-09T21:25:08.779Z,20.40
2023-04-09T21:27:37.854Z,19.80
2023-04-09T21:30:06.380Z,18.60
2023-04-09T21:32:34.167Z,19.50
2023-04-09T21:35:01.917Z,18.40
2023-04-09T21:37:31.924Z,18.70
2023-04-09T21:39:59.650Z,17.17
2023-04-09T21:42:27.587Z,17.47
2023-04-09T21:44:56.627Z,19.67
2023-04-09T21:47:24.561Z,19.43
2023-04-09T21:49:52.307Z,18.60
2023-04-09T21:52:20.059Z,18.20
2023-04-09T21:54:47.773Z,19.23
2023-04-09T21:57:15.845Z,18.67
2023-04-09T21:59:43.567Z,16.00
2023-04-09T22:02:12.740Z,18.03
2023-04-09T22:04:42.432Z,19.73
2023-04-09T22:07:11.454Z,18.07
2023-04-09T22:09:39.270Z,18.97
2023-04-09T22:12:07.180Z,19.10
2023-04-09T22:14:34.857Z,19.50
2023-04-09T22:17:03.394Z,19.00
2023-04-09T22:19:33.908Z,20.43
2023-04-09T22:22:01.630Z,20.40
2023-04-09T22:24:30.238Z,17.57
2023-04-09T22:26:59.237Z,18.23
2023-04-09T22:29:27.629Z,18.00
2023-04-09T22:31:55.685Z,20.40
2023-04-09T22:34:30.025Z,18.37
2023-04-09T22:36:59.040Z,19.40
2023-04-09T22:39:27.035Z,17.13
2023-04-09T22:41:54.733Z,17.87
2023-04-09T22:44:22.495Z,19.27
2023-04-09T22:46:50.285Z,20.70
2023-04-09T22:49:18.305Z,18.70
2023-04-09T22:51:46.331Z,18.23
2023-04-09T22:54:15.544Z,19.50
2023-04-09T22:56:44.633Z,19.07
2023-04-09T22:59:12.427Z,18.33
2023-04-09T23:01:40.264Z,19.23
2023-04-09T23:04:08.153Z,19.23
2023-04-09T23:06:35.919Z,17.73
2023-04-09T23:09:03.696Z,20.03
2023-04-09T23:11:32.700Z,19.50
2023-04-09T23:14:00.397Z,19.23
2023-04-09T23:16:28.096Z,18.53
2023-04-09T23:18:56.162Z,18.90
2023-04-09T23:21:24.062Z,19.10
2023-04-09T23:23:52.027Z,17.77
2023-04-09T23:26:19.923Z,16.83
2023-04-09T23:28:48.977Z,17.77
2023-04-09T23:31:17.098Z,18.10
2023-04-09T23:33:44.804Z,16.90
2023-04-09T23:36:12.466Z,18.33
2023-04-09T23:38:43.641Z,20.23
2023-04-09T23:41:11.345Z,16.93
2023-04-09T23:43:39.054Z,19.73
2023-04-09T23:46:08.171Z,18.43
2023-04-09T23:48:35.940Z,19.60
2023-04-09T23:51:03.613Z,17.63
2023-04-09T23:53:31.291Z,17.20
2023-04-09T23:55:59.493Z,18.53
2023-04-09T23:58:27.191Z,20.80
